Darstellungsparameter: Aktuell verwendete Einstellungen:
Skalierung der Graphiken ... ?
xyx+y,   Skalierungsfaktor:      Skalierung: Modus: x, Faktor: 1
Darstellungszeitraum ... ?
Vom - - bis: - -   Zeitraum: 28.09.2015 - 28.09.2015
Min/Max/Avg-Anzeige ... ?
Zeige MMA aktuell
Zeige MMA Monat
Zeige MMA alles
Zeige --A aktuell
Zeige --A Monat
Zeige --A alles
Keine MMA-Anzeige
MMA:
Average (ber die Originaldaten)
MMA-Basis: 28.09.2015 - 28.09.2015
Quicknavigation für Darstellung... ?
Tage:      1T, 2T, 3T, 5T -1T -2T -3T -5T +1T +2T +3T +5T
Wochen: 1W, 2W, 3W -1W -2W -3W +1W +2W +3W
Monate: 1M, 3M, 6M -1M -3M -6M +1M +3M +6M
Jahre:    1J, 3J, 5J, 10J -1J -3J -5J -10J +1J +3J +5J +10J
Nutze für die Darstellung ... ?
Originaldaten oder Mittelwerte auf ...
Stundenbasis Tagesbasis Wochenbasis
Monatsbasis Jahresbasis      Datenbasis: Original-Daten
Darstellen als:
Statistik (Auto) Statistik J:M      Darstellung:
Zur Graphik,    zurück zur Übersicht aller Sensoren.
 
Tabellarische Datenbersicht: ?
 
Sensor: Nr:Datum:Temp:Abs-Feuchte:Windchill:Wind:
Aussen-T/F 1 28-09-2015 00:00:00 9.1 C 7.9 g/m*3 9.1 C 0 km/h
2 28-09-2015 00:05:00 9.1 C 7.9 g/m*3 9.1 C 1.6 km/h
3 28-09-2015 00:10:00 9.1 C 7.9 g/m*3 9.1 C 1.6 km/h
4 28-09-2015 00:15:00 9.1 C 7.9 g/m*3 9.1 C 0 km/h
5 28-09-2015 00:20:00 9.1 C 7.9 g/m*3 9.1 C 0 km/h
6 28-09-2015 00:25:00 9.1 C 7.9 g/m*3 9.1 C 1.6 km/h
7 28-09-2015 00:30:00 9 C 7.85 g/m*3 9 C 0 km/h
8 28-09-2015 00:35:00 9.1 C 7.9 g/m*3 9.1 C 0 km/h
9 28-09-2015 00:40:00 9.1 C 7.9 g/m*3 9.1 C 0 km/h
10 28-09-2015 00:45:00 9.1 C 7.99 g/m*3 9.1 C 0 km/h
11 28-09-2015 00:50:00 9 C 7.93 g/m*3 9 C 0 km/h
12 28-09-2015 00:55:00 9 C 7.93 g/m*3 9 C 0 km/h
13 28-09-2015 01:00:00 8.9 C 7.88 g/m*3 8.9 C 0 km/h
14 28-09-2015 01:05:00 8.8 C 7.83 g/m*3 8.8 C 0 km/h
15 28-09-2015 01:10:00 8.8 C 7.83 g/m*3 8.8 C 0 km/h
16 28-09-2015 01:15:00 8.7 C 7.78 g/m*3 8.7 C 0 km/h
17 28-09-2015 01:20:00 8.6 C 7.73 g/m*3 8.6 C 0 km/h
18 28-09-2015 01:25:00 8.5 C 7.68 g/m*3 8.5 C 0 km/h
19 28-09-2015 01:30:00 8.4 C 7.63 g/m*3 8.4 C 0 km/h
20 28-09-2015 01:35:00 8.4 C 7.63 g/m*3 8.4 C 0 km/h
21 28-09-2015 01:40:00 8.4 C 7.72 g/m*3 8.4 C 0 km/h
22 28-09-2015 01:45:00 8.3 C 7.59 g/m*3 8.3 C 0 km/h
23 28-09-2015 01:50:00 8.3 C 7.67 g/m*3 8.3 C 0 km/h
24 28-09-2015 01:55:00 8.2 C 7.62 g/m*3 8.2 C 0 km/h
25 28-09-2015 02:00:00 8.1 C 7.57 g/m*3 8.1 C 0 km/h
Sensor: Nr:Datum:Temp:Abs-Feuchte:Windchill:Wind:
Aussen-T/F 26 28-09-2015 02:05:00 8 C 7.61 g/m*3 8 C 0 km/h
27 28-09-2015 02:10:00 7.9 C 7.56 g/m*3 7.9 C 0 km/h
28 28-09-2015 02:15:00 7.8 C 7.51 g/m*3 7.8 C 0 km/h
29 28-09-2015 02:20:00 7.8 C 7.51 g/m*3 7.8 C 0 km/h
30 28-09-2015 02:25:00 7.8 C 7.51 g/m*3 7.8 C 0 km/h
31 28-09-2015 02:30:00 7.7 C 7.54 g/m*3 7.7 C 0 km/h
32 28-09-2015 02:35:00 7.7 C 7.54 g/m*3 7.7 C 0 km/h
33 28-09-2015 02:40:00 7.6 C 7.49 g/m*3 7.6 C 0 km/h
34 28-09-2015 02:45:00 7.6 C 7.49 g/m*3 7.6 C 0 km/h
35 28-09-2015 02:50:00 7.5 C 7.44 g/m*3 7.5 C 0 km/h
36 28-09-2015 02:55:00 7.4 C 7.4 g/m*3 7.4 C 0 km/h
37 28-09-2015 03:00:00 7.4 C 7.4 g/m*3 7.4 C 0 km/h
38 28-09-2015 03:05:00 7.3 C 7.35 g/m*3 7.3 C 0 km/h
39 28-09-2015 03:10:00 7.3 C 7.35 g/m*3 7.3 C 0 km/h
40 28-09-2015 03:15:00 7.2 C 7.3 g/m*3 7.2 C 0 km/h
41 28-09-2015 03:20:00 7.2 C 7.38 g/m*3 7.2 C 0 km/h
42 28-09-2015 03:25:00 7.1 C 7.33 g/m*3 7.1 C 0 km/h
43 28-09-2015 03:30:00 7.1 C 7.33 g/m*3 7.1 C 0 km/h
44 28-09-2015 03:35:00 7.1 C 7.33 g/m*3 7.1 C 0 km/h
45 28-09-2015 03:40:00 7 C 7.28 g/m*3 7 C 0 km/h
46 28-09-2015 03:45:00 7 C 7.28 g/m*3 7 C 0 km/h
47 28-09-2015 03:50:00 7 C 7.28 g/m*3 7 C 0 km/h
48 28-09-2015 03:55:00 6.9 C 7.24 g/m*3 6.9 C 0 km/h
49 28-09-2015 04:00:00 6.9 C 7.24 g/m*3 6.9 C 0 km/h
50 28-09-2015 04:05:00 6.9 C 7.24 g/m*3 6.9 C 0 km/h
Sensor: Nr:Datum:Temp:Abs-Feuchte:Windchill:Wind:
Aussen-T/F 51 28-09-2015 04:10:00 6.8 C 7.19 g/m*3 6.8 C 0 km/h
52 28-09-2015 04:15:00 6.8 C 7.19 g/m*3 6.8 C 0 km/h
53 28-09-2015 04:20:00 6.8 C 7.19 g/m*3 6.8 C 0 km/h
54 28-09-2015 04:25:00 6.8 C 7.19 g/m*3 6.8 C 0 km/h
55 28-09-2015 04:30:00 6.8 C 7.19 g/m*3 6.8 C 0 km/h
56 28-09-2015 04:35:00 6.7 C 7.14 g/m*3 6.7 C 0 km/h
57 28-09-2015 04:40:00 6.6 C 7.1 g/m*3 6.6 C 0 km/h
58 28-09-2015 04:45:00 6.6 C 7.17 g/m*3 6.6 C 0 km/h
59 28-09-2015 04:50:00 6.5 C 7.12 g/m*3 6.5 C 0 km/h
60 28-09-2015 04:55:00 6.4 C 7.08 g/m*3 6.4 C 0 km/h
61 28-09-2015 05:00:00 6.5 C 7.12 g/m*3 6.5 C 0 km/h
62 28-09-2015 05:05:00 6.5 C 7.12 g/m*3 6.5 C 0 km/h
63 28-09-2015 05:10:00 6.6 C 7.17 g/m*3 6.6 C 0 km/h
64 28-09-2015 05:15:00 6.5 C 7.12 g/m*3 6.5 C 0 km/h
65 28-09-2015 05:20:00 6.4 C 7.08 g/m*3 6.4 C 0 km/h
66 28-09-2015 05:25:00 6.4 C 7.08 g/m*3 6.4 C 0 km/h
67 28-09-2015 05:30:00 6.4 C 7.08 g/m*3 6.4 C 0 km/h
68 28-09-2015 05:35:00 6.4 C 7.08 g/m*3 6.4 C 0 km/h
69 28-09-2015 05:40:00 6.3 C 7.03 g/m*3 6.3 C 0 km/h
70 28-09-2015 05:45:00 6.3 C 7.03 g/m*3 6.3 C 0 km/h
71 28-09-2015 05:50:00 6.3 C 7.03 g/m*3 6.3 C 0 km/h
72 28-09-2015 05:55:00 6.3 C 7.03 g/m*3 6.3 C 0 km/h
73 28-09-2015 06:00:00 6.3 C 7.03 g/m*3 6.3 C 0 km/h
74 28-09-2015 06:05:00 6.3 C 7.03 g/m*3 6.3 C 0 km/h
75 28-09-2015 06:10:00 6.3 C 7.03 g/m*3 6.3 C 0 km/h
Sensor: Nr:Datum:Temp:Abs-Feuchte:Windchill:Wind:
Aussen-T/F 76 28-09-2015 06:15:00 6.3 C 7.03 g/m*3 6.3 C 0 km/h
77 28-09-2015 06:20:00 6.2 C 6.99 g/m*3 6.2 C 0 km/h
78 28-09-2015 06:25:00 6.1 C 6.94 g/m*3 6.1 C 0 km/h
79 28-09-2015 06:30:00 6.1 C 6.94 g/m*3 6.1 C 0 km/h
80 28-09-2015 06:35:00 5.9 C 6.85 g/m*3 5.9 C 0 km/h
81 28-09-2015 06:40:00 5.9 C 6.85 g/m*3 5.9 C 0 km/h
82 28-09-2015 06:45:00 5.9 C 6.85 g/m*3 5.9 C 0 km/h
83 28-09-2015 06:50:00 5.8 C 6.81 g/m*3 5.8 C 0 km/h
84 28-09-2015 06:55:00 5.8 C 6.81 g/m*3 5.8 C 0 km/h
85 28-09-2015 07:00:00 5.7 C 6.76 g/m*3 5.7 C 0 km/h
86 28-09-2015 07:05:00 5.7 C 6.76 g/m*3 5.7 C 0 km/h
87 28-09-2015 07:10:00 5.7 C 6.76 g/m*3 5.7 C 0 km/h
88 28-09-2015 07:15:00 5.7 C 6.76 g/m*3 5.7 C 0 km/h
89 28-09-2015 07:20:00 5.6 C 6.72 g/m*3 5.6 C 0 km/h
90 28-09-2015 07:25:00 5.6 C 6.72 g/m*3 5.6 C 0 km/h
91 28-09-2015 07:30:00 5.6 C 6.72 g/m*3 5.6 C 0 km/h
92 28-09-2015 07:35:00 5.6 C 6.72 g/m*3 5.6 C 0 km/h
93 28-09-2015 07:40:00 5.6 C 6.72 g/m*3 5.6 C 0 km/h
94 28-09-2015 07:45:00 5.5 C 6.74 g/m*3 5.5 C 0 km/h
95 28-09-2015 07:50:00 5.6 C 6.79 g/m*3 5.6 C 0 km/h
96 28-09-2015 07:55:00 5.6 C 6.79 g/m*3 5.6 C 0 km/h
97 28-09-2015 08:00:00 5.6 C 6.79 g/m*3 5.6 C 0 km/h
98 28-09-2015 08:05:00 5.6 C 6.79 g/m*3 5.6 C 0 km/h
99 28-09-2015 08:10:00 5.6 C 6.79 g/m*3 5.6 C 0 km/h
100 28-09-2015 08:15:00 5.6 C 6.79 g/m*3 5.6 C 0 km/h
Sensor: Nr:Datum:Temp:Abs-Feuchte:Windchill:Wind:
Aussen-T/F 101 28-09-2015 08:20:00 5.7 C 6.83 g/m*3 5.7 C 0 km/h
102 28-09-2015 08:25:00 5.7 C 6.83 g/m*3 5.7 C 0 km/h
103 28-09-2015 08:30:00 5.7 C 6.83 g/m*3 5.7 C 0 km/h
104 28-09-2015 08:35:00 5.7 C 6.83 g/m*3 5.7 C 0 km/h
105 28-09-2015 08:40:00 5.8 C 6.88 g/m*3 5.8 C 0 km/h
106 28-09-2015 08:45:00 5.8 C 6.88 g/m*3 5.8 C 0 km/h
107 28-09-2015 08:50:00 5.9 C 6.92 g/m*3 5.9 C 0 km/h
108 28-09-2015 08:55:00 5.9 C 6.92 g/m*3 5.9 C 0 km/h
109 28-09-2015 09:00:00 5.9 C 6.92 g/m*3 5.9 C 0 km/h
110 28-09-2015 09:05:00 5.9 C 6.92 g/m*3 5.9 C 0 km/h
111 28-09-2015 09:10:00 6 C 6.97 g/m*3 6 C 0 km/h
112 28-09-2015 09:15:00 6.1 C 7.01 g/m*3 6.1 C 0 km/h
113 28-09-2015 09:20:00 6.4 C 7.15 g/m*3 6.4 C 0 km/h
114 28-09-2015 09:25:00 6.6 C 7.25 g/m*3 6.6 C 0 km/h
115 28-09-2015 09:30:00 6.7 C 7.29 g/m*3 6.7 C 0 km/h
116 28-09-2015 09:35:00 6.7 C 7.37 g/m*3 6.7 C 0 km/h
117 28-09-2015 09:40:00 6.8 C 7.34 g/m*3 6.8 C 0 km/h
118 28-09-2015 09:45:00 6.8 C 7.34 g/m*3 6.8 C 0 km/h
119 28-09-2015 09:50:00 6.9 C 7.39 g/m*3 6.9 C 0 km/h
120 28-09-2015 09:55:00 7 C 7.44 g/m*3 7 C 0 km/h
121 28-09-2015 10:00:00 7.1 C 7.49 g/m*3 7.1 C 0 km/h
122 28-09-2015 10:05:00 7.1 C 7.49 g/m*3 7.1 C 0 km/h
123 28-09-2015 10:10:00 7.2 C 7.54 g/m*3 7.2 C 0 km/h
124 28-09-2015 10:15:00 7.3 C 7.58 g/m*3 7.3 C 0 km/h
125 28-09-2015 10:20:00 7.4 C 7.63 g/m*3 7.4 C 0 km/h
Sensor: Nr:Datum:Temp:Abs-Feuchte:Windchill:Wind:
Aussen-T/F 126 28-09-2015 10:25:00 7.5 C 7.68 g/m*3 7.5 C 0 km/h
127 28-09-2015 10:30:00 7.7 C 7.87 g/m*3 7.7 C 0 km/h
128 28-09-2015 10:35:00 7.9 C 7.97 g/m*3 7.9 C 0 km/h
129 28-09-2015 10:40:00 8.2 C 8.12 g/m*3 8.2 C 0 km/h
130 28-09-2015 10:45:00 8.3 C 8.18 g/m*3 8.3 C 0 km/h
131 28-09-2015 10:50:00 8.5 C 8.28 g/m*3 8.5 C 0 km/h
132 28-09-2015 10:55:00 8.6 C 8.34 g/m*3 8.6 C 0 km/h
133 28-09-2015 11:00:00 8.7 C 8.39 g/m*3 8.7 C 0 km/h
134 28-09-2015 11:05:00 8.8 C 8.36 g/m*3 8.8 C 0 km/h
135 28-09-2015 11:10:00 8.9 C 8.5 g/m*3 8.9 C 0 km/h
136 28-09-2015 11:15:00 9.1 C 8.52 g/m*3 9.1 C 0 km/h
137 28-09-2015 11:20:00 9.2 C 8.57 g/m*3 9.2 C 0 km/h
138 28-09-2015 11:25:00 9.3 C 8.63 g/m*3 9.3 C 0 km/h
139 28-09-2015 11:30:00 9.5 C 8.74 g/m*3 9.5 C 0 km/h
140 28-09-2015 11:35:00 9.6 C 8.79 g/m*3 9.6 C 0 km/h
141 28-09-2015 11:40:00 9.8 C 8.91 g/m*3 9.8 C 0 km/h
142 28-09-2015 11:45:00 9.9 C 8.96 g/m*3 9.9 C 0 km/h
143 28-09-2015 11:50:00 10 C 9.02 g/m*3 10 C 0 km/h
144 28-09-2015 11:55:00 10.2 C 9.14 g/m*3 10.2 C 1.6 km/h
145 28-09-2015 12:00:00 10.3 C 9.1 g/m*3 10.3 C 0 km/h
146 28-09-2015 12:05:00 10.5 C 9.21 g/m*3 10.5 C 0 km/h
147 28-09-2015 12:10:00 10.7 C 9.33 g/m*3 10.7 C 0 km/h
148 28-09-2015 12:15:00 10.9 C 9.45 g/m*3 10.9 C 1.6 km/h
149 28-09-2015 12:20:00 11.2 C 9.53 g/m*3 11.2 C 3.2 km/h
150 28-09-2015 12:25:00 11.4 C 9.55 g/m*3 11.4 C 3.2 km/h
Sensor: Nr:Datum:Temp:Abs-Feuchte:Windchill:Wind:
Aussen-T/F 151 28-09-2015 12:30:00 11.7 C 9.62 g/m*3 11.7 C 3.2 km/h
152 28-09-2015 12:35:00 12.1 C 9.01 g/m*3 12.1 C 4.8 km/h
153 28-09-2015 12:40:00 12.7 C 8.79 g/m*3 12.7 C 6.4 km/h
154 28-09-2015 12:45:00 13.4 C 8.72 g/m*3 13.4 C 6.4 km/h
155 28-09-2015 12:50:00 14 C 8.68 g/m*3 14 C 11.3 km/h
156 28-09-2015 12:55:00 14.4 C 8.65 g/m*3 14.4 C 8.1 km/h
157 28-09-2015 13:00:00 14.7 C 8.56 g/m*3 14.7 C 9.7 km/h
158 28-09-2015 13:05:00 15.2 C 8.57 g/m*3 15.2 C 6.4 km/h
159 28-09-2015 13:10:00 15.6 C 8.38 g/m*3 15.6 C 9.7 km/h
160 28-09-2015 13:15:00 15.9 C 8.94 g/m*3 15.9 C 9.7 km/h
161 28-09-2015 13:20:00 16.3 C 8.46 g/m*3 16.3 C 12.9 km/h
162 28-09-2015 13:25:00 16.5 C 8.14 g/m*3 16.5 C 14.5 km/h
163 28-09-2015 13:30:00 16.6 C 8.48 g/m*3 16.6 C 14.5 km/h
164 28-09-2015 13:35:00 16.8 C 8.44 g/m*3 16.8 C 14.5 km/h
165 28-09-2015 13:40:00 16.9 C 8.2 g/m*3 16.9 C 9.7 km/h
166 28-09-2015 13:45:00 17.1 C 8.44 g/m*3 17.1 C 11.3 km/h
167 28-09-2015 13:50:00 17.2 C 8.2 g/m*3 17.2 C 11.3 km/h
168 28-09-2015 13:55:00 17.1 C 8.73 g/m*3 17.1 C 3.2 km/h
169 28-09-2015 14:00:00 16.9 C 8.49 g/m*3 16.9 C 6.4 km/h
170 28-09-2015 14:05:00 16.9 C 8.49 g/m*3 16.9 C 14.5 km/h
171 28-09-2015 14:10:00 16.9 C 8.05 g/m*3 16.9 C 9.7 km/h
172 28-09-2015 14:15:00 16.9 C 8.34 g/m*3 16.9 C 12.9 km/h
173 28-09-2015 14:20:00 16.9 C 8.05 g/m*3 16.9 C 12.9 km/h
174 28-09-2015 14:25:00 16.9 C 8.2 g/m*3 16.9 C 8.1 km/h
175 28-09-2015 14:30:00 17 C 8.25 g/m*3 17 C 8.1 km/h
Sensor: Nr:Datum:Temp:Abs-Feuchte:Windchill:Wind:
Aussen-T/F 176 28-09-2015 14:35:00 17 C 8.25 g/m*3 17 C 11.3 km/h
177 28-09-2015 14:40:00 17.1 C 8.15 g/m*3 17.1 C 8.1 km/h
178 28-09-2015 14:45:00 17.1 C 7.71 g/m*3 17.1 C 14.5 km/h
179 28-09-2015 14:50:00 17.1 C 7.71 g/m*3 17.1 C 9.7 km/h
180 28-09-2015 14:55:00 17.1 C 7.86 g/m*3 17.1 C 14.5 km/h
181 28-09-2015 15:00:00 17.2 C 8.05 g/m*3 17.2 C 12.9 km/h
182 28-09-2015 15:05:00 17.3 C 8.1 g/m*3 17.3 C 8.1 km/h
183 28-09-2015 15:10:00 17.3 C 7.96 g/m*3 17.3 C 11.3 km/h
184 28-09-2015 15:15:00 17.3 C 8.69 g/m*3 17.3 C 4.8 km/h
185 28-09-2015 15:20:00 17.2 C 7.76 g/m*3 17.2 C 11.3 km/h
186 28-09-2015 15:25:00 17.2 C 8.35 g/m*3 17.2 C 8.1 km/h
187 28-09-2015 15:30:00 17.3 C 8.4 g/m*3 17.3 C 11.3 km/h
188 28-09-2015 15:35:00 17.3 C 8.54 g/m*3 17.3 C 3.2 km/h
189 28-09-2015 15:40:00 17.4 C 8.15 g/m*3 17.4 C 6.4 km/h
190 28-09-2015 15:45:00 17.4 C 8.15 g/m*3 17.4 C 8.1 km/h
191 28-09-2015 15:50:00 17.4 C 8.45 g/m*3 17.4 C 8.1 km/h
192 28-09-2015 15:55:00 17.4 C 8.45 g/m*3 17.4 C 3.2 km/h
193 28-09-2015 16:00:00 17.4 C 7.85 g/m*3 17.4 C 6.4 km/h
194 28-09-2015 16:05:00 17.4 C 7.71 g/m*3 17.4 C 6.4 km/h
195 28-09-2015 16:10:00 17.6 C 7.8 g/m*3 17.6 C 6.4 km/h
196 28-09-2015 16:15:00 17.7 C 8 g/m*3 17.7 C 9.7 km/h
197 28-09-2015 16:20:00 17.8 C 8.5 g/m*3 17.8 C 6.4 km/h
198 28-09-2015 16:25:00 17.8 C 7.89 g/m*3 17.8 C 4.8 km/h
199 28-09-2015 16:30:00 18 C 7.99 g/m*3 18 C 4.8 km/h
200 28-09-2015 16:35:00 18 C 7.99 g/m*3 18 C 3.2 km/h
Sensor: Nr:Datum:Temp:Abs-Feuchte:Windchill:Wind:
Aussen-T/F 201 28-09-2015 16:40:00 17.8 C 7.89 g/m*3 17.8 C 9.7 km/h
202 28-09-2015 16:45:00 17.6 C 7.8 g/m*3 17.6 C 9.7 km/h
203 28-09-2015 16:50:00 17.4 C 8.45 g/m*3 17.4 C 4.8 km/h
204 28-09-2015 16:55:00 17.3 C 7.81 g/m*3 17.3 C 8.1 km/h
205 28-09-2015 17:00:00 17.3 C 7.81 g/m*3 17.3 C 9.7 km/h
206 28-09-2015 17:05:00 17.3 C 8.1 g/m*3 17.3 C 6.4 km/h
207 28-09-2015 17:10:00 17.2 C 7.91 g/m*3 17.2 C 11.3 km/h
208 28-09-2015 17:15:00 17.2 C 7.91 g/m*3 17.2 C 8.1 km/h
209 28-09-2015 17:20:00 17.2 C 7.76 g/m*3 17.2 C 11.3 km/h
210 28-09-2015 17:25:00 17.1 C 7.86 g/m*3 17.1 C 11.3 km/h
211 28-09-2015 17:30:00 17 C 7.81 g/m*3 17 C 8.1 km/h
212 28-09-2015 17:35:00 16.9 C 7.77 g/m*3 16.9 C 6.4 km/h
213 28-09-2015 17:40:00 16.9 C 7.91 g/m*3 16.9 C 8.1 km/h
214 28-09-2015 17:45:00 16.8 C 8.01 g/m*3 16.8 C 3.2 km/h
215 28-09-2015 17:50:00 16.7 C 7.96 g/m*3 16.7 C 3.2 km/h
216 28-09-2015 17:55:00 16.5 C 8.43 g/m*3 16.5 C 4.8 km/h
217 28-09-2015 18:00:00 16.4 C 7.96 g/m*3 16.4 C 4.8 km/h
218 28-09-2015 18:05:00 16.2 C 8.14 g/m*3 16.2 C 8.1 km/h
219 28-09-2015 18:10:00 15.9 C 8.53 g/m*3 15.9 C 1.6 km/h
220 28-09-2015 18:15:00 15.8 C 8.21 g/m*3 15.8 C 6.4 km/h
221 28-09-2015 18:20:00 16 C 8.17 g/m*3 16 C 1.6 km/h
222 28-09-2015 18:25:00 16.3 C 8.6 g/m*3 16.3 C 6.4 km/h
223 28-09-2015 18:30:00 16.2 C 8.69 g/m*3 16.2 C 1.6 km/h
224 28-09-2015 18:35:00 15.7 C 8.7 g/m*3 15.7 C 1.6 km/h
225 28-09-2015 18:40:00 15.3 C 8.75 g/m*3 15.3 C 3.2 km/h
Sensor: Nr:Datum:Temp:Abs-Feuchte:Windchill:Wind:
Aussen-T/F 226 28-09-2015 18:45:00 14.8 C 8.74 g/m*3 14.8 C 1.6 km/h
227 28-09-2015 18:50:00 14.4 C 8.78 g/m*3 14.4 C 0 km/h
228 28-09-2015 18:55:00 14.1 C 8.74 g/m*3 14.1 C 1.6 km/h
229 28-09-2015 19:00:00 13.7 C 8.76 g/m*3 13.7 C 0 km/h
230 28-09-2015 19:05:00 13.4 C 8.72 g/m*3 13.4 C 1.6 km/h
231 28-09-2015 19:10:00 13.1 C 8.56 g/m*3 13.1 C 1.6 km/h
232 28-09-2015 19:15:00 12.8 C 8.51 g/m*3 12.8 C 1.6 km/h
233 28-09-2015 19:20:00 12.6 C 8.41 g/m*3 12.6 C 1.6 km/h
234 28-09-2015 19:25:00 12.4 C 8.41 g/m*3 12.4 C 1.6 km/h
235 28-09-2015 19:30:00 12.3 C 8.47 g/m*3 12.3 C 1.6 km/h
236 28-09-2015 19:35:00 12.2 C 8.42 g/m*3 12.2 C 1.6 km/h
237 28-09-2015 19:40:00 12.1 C 8.47 g/m*3 12.1 C 3.2 km/h
238 28-09-2015 19:45:00 11.9 C 8.37 g/m*3 11.9 C 1.6 km/h
239 28-09-2015 19:50:00 11.9 C 8.37 g/m*3 11.9 C 1.6 km/h
240 28-09-2015 19:55:00 11.8 C 8.31 g/m*3 11.8 C 0 km/h
241 28-09-2015 20:00:00 11.8 C 8.31 g/m*3 11.8 C 0 km/h
242 28-09-2015 20:05:00 11.8 C 8.31 g/m*3 11.8 C 1.6 km/h
243 28-09-2015 20:10:00 11.7 C 8.37 g/m*3 11.7 C 1.6 km/h
244 28-09-2015 20:15:00 11.7 C 8.37 g/m*3 11.7 C 1.6 km/h
245 28-09-2015 20:20:00 11.6 C 8.42 g/m*3 11.6 C 1.6 km/h
246 28-09-2015 20:25:00 11.4 C 8.31 g/m*3 11.4 C 1.6 km/h
247 28-09-2015 20:30:00 11.3 C 8.36 g/m*3 11.3 C 1.6 km/h
248 28-09-2015 20:35:00 11.2 C 8.31 g/m*3 11.2 C 0 km/h
249 28-09-2015 20:40:00 11.1 C 8.16 g/m*3 11.1 C 0 km/h
250 28-09-2015 20:45:00 11 C 8.11 g/m*3 11 C 0 km/h
Sensor: Nr:Datum:Temp:Abs-Feuchte:Windchill:Wind:
Aussen-T/F 251 28-09-2015 20:50:00 10.9 C 8.16 g/m*3 10.9 C 1.6 km/h
252 28-09-2015 20:55:00 10.8 C 8.2 g/m*3 10.8 C 0 km/h
253 28-09-2015 21:00:00 10.7 C 8.15 g/m*3 10.7 C 0 km/h
254 28-09-2015 21:05:00 10.6 C 8.2 g/m*3 10.6 C 0 km/h
255 28-09-2015 21:10:00 10.6 C 8.2 g/m*3 10.6 C 0 km/h
256 28-09-2015 21:15:00 10.4 C 8.1 g/m*3 10.4 C 0 km/h
257 28-09-2015 21:20:00 10.4 C 8.1 g/m*3 10.4 C 0 km/h
258 28-09-2015 21:25:00 10.3 C 8.14 g/m*3 10.3 C 0 km/h
259 28-09-2015 21:30:00 10.3 C 8.14 g/m*3 10.3 C 0 km/h
260 28-09-2015 21:35:00 10.2 C 8.09 g/m*3 10.2 C 0 km/h
261 28-09-2015 21:40:00 10.2 C 8.09 g/m*3 10.2 C 0 km/h
262 28-09-2015 21:45:00 10.1 C 8.04 g/m*3 10.1 C 0 km/h
263 28-09-2015 21:50:00 10.1 C 8.13 g/m*3 10.1 C 0 km/h
264 28-09-2015 21:55:00 10 C 8.08 g/m*3 10 C 0 km/h
265 28-09-2015 22:00:00 9.9 C 8.12 g/m*3 9.9 C 0 km/h
266 28-09-2015 22:05:00 9.9 C 8.12 g/m*3 9.9 C 0 km/h
267 28-09-2015 22:10:00 9.8 C 8.07 g/m*3 9.8 C 0 km/h
268 28-09-2015 22:15:00 9.8 C 8.07 g/m*3 9.8 C 0 km/h
269 28-09-2015 22:20:00 9.8 C 8.07 g/m*3 9.8 C 0 km/h
270 28-09-2015 22:25:00 9.7 C 8.11 g/m*3 9.7 C 0 km/h
271 28-09-2015 22:30:00 9.7 C 8.11 g/m*3 9.7 C 0 km/h
272 28-09-2015 22:35:00 9.6 C 8.06 g/m*3 9.6 C 0 km/h
273 28-09-2015 22:40:00 9.5 C 7.92 g/m*3 9.5 C 0 km/h
274 28-09-2015 22:45:00 9.4 C 7.96 g/m*3 9.4 C 0 km/h
275 28-09-2015 22:50:00 9.4 C 7.96 g/m*3 9.4 C 0 km/h
Sensor: Nr:Datum:Temp:Abs-Feuchte:Windchill:Wind:
Aussen-T/F 276 28-09-2015 22:55:00 9.3 C 7.91 g/m*3 9.3 C 0 km/h
277 28-09-2015 23:00:00 9.3 C 8 g/m*3 9.3 C 0 km/h
278 28-09-2015 23:05:00 9.2 C 7.95 g/m*3 9.2 C 0 km/h
279 28-09-2015 23:10:00 9.2 C 7.95 g/m*3 9.2 C 0 km/h
280 28-09-2015 23:15:00 9.1 C 7.9 g/m*3 9.1 C 0 km/h
281 28-09-2015 23:20:00 8.9 C 7.8 g/m*3 8.9 C 0 km/h
282 28-09-2015 23:25:00 8.9 C 7.8 g/m*3 8.9 C 0 km/h
283 28-09-2015 23:30:00 8.8 C 7.75 g/m*3 8.8 C 0 km/h
284 28-09-2015 23:35:00 8.7 C 7.78 g/m*3 8.7 C 0 km/h
285 28-09-2015 23:40:00 8.7 C 7.78 g/m*3 8.7 C 0 km/h
286 28-09-2015 23:45:00 8.6 C 7.73 g/m*3 8.6 C 0 km/h
287 28-09-2015 23:50:00 8.5 C 7.77 g/m*3 8.5 C 0 km/h
288 28-09-2015 23:55:00 8.5 C 7.77 g/m*3 8.5 C 0 km/h

Legende:
   Min
   Max


Maximal/Minimal-Werte vom 28.09.2015 - 28.09.2015

Sensor Min Max Avg
Temp
(Aussen-T/F)
5.5 °C
28-09-2015  07:45:00
18 °C
28-09-2015  16:30:00
10.51 °C
Abs-Feuchte
(Aussen-T/F)
6.72 g/m*3
28-09-2015  07:20:00
9.62 g/m*3
28-09-2015  12:30:00
7.81 g/m*3
Windchill
(Aussen-T/F)
5.5 C
28-09-2015  07:45:00
18 C
28-09-2015  16:30:00
10.47 C

Die Daten stammen von einer Davis Vantage Pro 2 Wetter-Station und werden unter Linux mit der Software wview2wettercgi und aufbereitet. Alle Angaben erfolgen ohne Gewähr für ihre Vollständigkeit oder Richtigkeit.
Kontakt: Rainer Krienke krienke@uni-koblenz.de . Meine Webseiten an der Uni Koblenz oder privat.
Version: $Revision: 0.78 $